Time;durP1;ratioP1;P1;durP2;ratioP2;P2;SDS_P1;SDS_P2;PMS_P1;PMS_P2;Temp;Humidity;BMP_temperature;BMP_pressure;BME280_temperature;BME280_humidity;BME280_pressure;Samples;Min_cycle;Max_cycle;Signal;HPM_P1;HPM_P2
2023/10/21 00:01:06;;;;;;;7.43;5.97;;;;;;;8.38;100.00;99054.44;4966504;28;20461;-74
2023/10/21 00:03:38;;;;;;;8.00;6.33;;;;;;;8.12;100.00;99016.38;4951675;28;20462;-74
2023/10/21 00:06:03;;;;;;;7.20;5.73;;;;;;;8.44;100.00;99063.44;4970526;28;20833;-74
2023/10/21 00:08:53;;;;;;;6.70;5.57;;;;;;;7.67;100.00;98959.94;4970662;28;20226;-74
2023/10/21 00:11:19;;;;;;;6.37;5.70;;;;;;;8.21;100.00;99035.56;4967290;28;20222;-74
2023/10/21 00:13:44;;;;;;;7.23;6.33;;;;;;;8.56;100.00;99088.31;4965325;28;20834;-74
2023/10/21 00:16:11;;;;;;;8.40;6.77;;;;;;;8.04;100.00;99002.53;4966317;28;20473;-74
2023/10/21 00:18:37;;;;;;;7.60;6.63;;;;;;;8.49;100.00;99092.97;4968307;28;20592;-73
2023/10/21 00:21:06;;;;;;;7.93;6.63;;;;;;;8.36;100.00;99076.06;4951718;28;20454;-74
2023/10/21 00:23:31;;;;;;;7.97;6.93;;;;;;;7.99;100.00;99011.25;4965771;28;20449;-74
2023/10/21 00:26:02;;;;;;;8.50;7.27;;;;;;;8.58;100.00;99119.13;4967785;28;20447;-74
2023/10/21 00:28:29;;;;;;;10.33;7.90;;;;;;;8.53;100.00;99115.50;4968522;28;20210;-74
2023/10/21 00:30:58;;;;;;;8.90;7.50;;;;;;;8.14;100.00;99062.38;4961406;28;20461;-73
2023/10/21 00:33:26;;;;;;;8.70;7.20;;;;;;;8.46;100.00;99120.13;4964350;28;20964;-74
2023/10/21 00:35:58;;;;;;;8.80;7.20;;;;;;;8.52;100.00;99140.59;4967222;28;20478;-74
2023/10/21 00:38:25;;;;;;;8.97;7.57;;;;;;;8.33;100.00;99105.06;4952773;28;20252;-74
2023/10/21 00:40:53;;;;;;;8.97;7.90;;;;;;;8.60;100.00;99134.94;4968041;28;20725;-74
2023/10/21 00:43:35;;;;;;;8.47;7.57;;;;;;;8.67;100.00;99140.19;4953178;28;20447;-74
2023/10/21 00:46:17;;;;;;;11.03;8.80;;;;;;;8.30;100.00;99098.34;4959961;28;20439;-73
2023/10/21 00:48:48;;;;;;;8.80;7.50;;;;;;;8.63;100.00;99158.53;4959487;28;20530;-74
2023/10/21 00:51:16;;;;;;;9.87;8.40;;;;;;;8.67;100.00;99174.94;4970266;28;20445;-74
2023/10/21 00:53:49;;;;;;;10.80;9.10;;;;;;;8.63;100.00;99181.78;4951524;28;20438;-74
2023/10/21 00:56:15;;;;;;;11.20;9.00;;;;;;;8.18;100.00;99129.50;4960454;28;20505;-74
2023/10/21 00:58:53;;;;;;;9.63;8.40;;;;;;;8.51;100.00;99171.84;4971928;28;20555;-74
2023/10/21 01:01:18;;;;;;;9.20;7.70;;;;;;;8.73;100.00;99182.03;4964611;28;20517;-74
2023/10/21 01:03:44;;;;;;;8.77;7.80;;;;;;;8.08;100.00;99098.00;4970185;28;20441;-74
2023/10/21 01:06:09;;;;;;;10.10;9.00;;;;;;;8.03;100.00;99089.03;4962748;28;20243;-74
2023/10/21 01:08:42;;;;;;;9.07;8.13;;;;;;;8.46;100.00;99136.97;4963929;28;20213;-74
2023/10/21 01:11:12;;;;;;;9.30;8.30;;;;;;;8.78;100.00;99191.00;4966428;28;20806;-74
2023/10/21 01:13:43;;;;;;;13.70;9.77;;;;;;;8.21;100.00;99142.41;4959698;28;20437;-74
2023/10/21 01:16:11;;;;;;;11.73;9.90;;;;;;;8.19;100.00;99117.78;4960186;28;20483;-74
2023/10/21 01:18:40;;;;;;;8.40;7.50;;;;;;;8.71;100.00;99195.66;4971783;28;20509;-74
2023/10/21 01:21:08;;;;;;;10.40;9.20;;;;;;;8.24;100.00;99133.94;4968645;28;20445;-74
2023/10/21 01:23:34;;;;;;;9.10;8.07;;;;;;;8.53;100.00;99196.50;4960990;28;20446;-74
2023/10/21 01:26:00;;;;;;;10.90;9.80;;;;;;;8.68;100.00;99230.84;4958576;28;20451;-74
2023/10/21 01:28:26;;;;;;;8.80;7.90;;;;;;;8.65;100.00;99225.97;4960719;28;20462;-74
2023/10/21 01:30:54;;;;;;;10.17;8.40;;;;;;;8.38;100.00;99185.34;4958357;28;20916;-73
2023/10/21 01:33:22;;;;;;;12.43;9.70;;;;;;;8.15;100.00;99141.44;4953986;28;20442;-74
2023/10/21 01:35:50;;;;;;;11.00;9.87;;;;;;;8.70;100.00;99247.47;4957600;28;20478;-74
2023/10/21 01:38:18;;;;;;;10.77;9.07;;;;;;;8.16;100.00;99112.91;4960235;28;20464;-74
2023/10/21 01:40:45;;;;;;;11.00;9.57;;;;;;;8.82;100.00;99237.66;4959693;28;20438;-74
2023/10/21 01:43:12;;;;;;;10.90;9.17;;;;;;;8.63;100.00;99200.50;4962169;28;20444;-73
2023/10/21 01:45:38;;;;;;;10.53;9.43;;;;;;;8.69;100.00;99220.97;4960929;28;20512;-74
2023/10/21 01:48:04;;;;;;;11.57;9.77;;;;;;;8.27;100.00;99151.38;4954704;28;21632;-74
2023/10/21 01:50:31;;;;;;;12.00;10.43;;;;;;;8.74;100.00;99221.91;4961561;28;20297;-74
2023/10/21 01:52:57;;;;;;;12.37;9.93;;;;;;;8.62;100.00;99214.88;4951846;28;20451;-74
2023/10/21 01:55:22;;;;;;;11.57;9.80;;;;;;;8.78;100.00;99243.66;4958565;28;20969;-74
2023/10/21 01:57:48;;;;;;;12.77;10.90;;;;;;;8.30;100.00;99193.66;4955749;28;20446;-75
2023/10/21 02:00:21;;;;;;;11.30;9.80;;;;;;;8.89;100.00;99266.16;4956420;28;20302;-73
2023/10/21 02:02:52;;;;;;;12.20;10.90;;;;;;;8.91;100.00;99274.75;4948001;28;20450;-74
2023/10/21 02:05:19;;;;;;;12.57;10.70;;;;;;;8.83;100.00;99270.53;4957514;28;20444;-74
2023/10/21 02:07:46;;;;;;;13.10;10.83;;;;;;;8.75;100.00;99231.56;4963055;28;20545;-74
2023/10/21 02:10:25;;;;;;;12.13;10.60;;;;;;;8.75;100.00;99271.66;4961520;28;20502;-74
2023/10/21 02:13:03;;;;;;;12.40;10.80;;;;;;;8.80;100.00;99253.09;4960069;28;20904;-73
2023/10/21 02:15:31;;;;;;;12.83;11.20;;;;;;;8.89;100.00;99253.59;4961006;28;20469;-74
2023/10/21 02:18:03;;;;;;;13.60;11.30;;;;;;;8.96;100.00;99274.91;4959004;28;20433;-74
2023/10/21 02:20:32;;;;;;;12.10;10.80;;;;;;;8.35;100.00;99202.63;4957317;28;20446;-74
2023/10/21 02:22:58;;;;;;;12.10;10.60;;;;;;;8.20;100.00;99169.34;4954016;28;20449;-74
2023/10/21 02:26:01;;;;;;;13.00;10.83;;;;;;;8.87;100.00;99317.16;4958070;28;20461;-73
2023/10/21 02:28:28;;;;;;;11.40;10.17;;;;;;;8.63;100.00;99254.75;4951022;28;20261;-74
2023/10/21 02:31:04;;;;;;;12.67;11.27;;;;;;;8.90;100.00;100110.97;4923654;28;20455;-74
2023/10/21 02:33:29;;;;;;;11.40;10.20;;;;;;;8.49;100.00;100113.81;4962441;28;20440;-73
2023/10/21 02:36:09;;;;;;;11.13;9.93;;;;;;;8.71;100.00;100200.84;4956131;28;20464;-74
2023/10/21 02:38:56;;;;;;;12.53;10.80;;;;;;;8.45;100.00;100209.63;4964186;28;20488;-74
2023/10/21 02:41:22;;;;;;;12.27;10.97;;;;;;;8.06;100.00;100156.78;4953784;28;20462;-74
2023/10/21 02:43:48;;;;;;;11.80;10.53;;;;;;;6.99;100.00;100011.31;4946437;28;21063;-74
2023/10/21 02:46:16;;;;;;;11.27;10.13;;;;;;;8.10;100.00;100206.97;4957664;28;20183;-73
2023/10/21 02:48:45;;;;;;;12.67;10.53;;;;;;;6.79;100.00;100040.47;4956076;28;20668;-74
2023/10/21 02:51:20;;;;;;;11.47;10.27;;;;;;;7.91;100.00;100226.38;4961994;28;20450;-73
2023/10/21 02:53:45;;;;;;;13.00;10.23;;;;;;;8.40;100.00;100302.09;4961672;28;20801;-74
2023/10/21 02:56:13;;;;;;;10.87;9.47;;;;;;;8.04;100.00;100260.31;4964007;28;20460;-74
2023/10/21 02:58:39;;;;;;;10.60;9.50;;;;;;;8.31;100.00;100269.34;4975221;28;20215;-74
2023/10/21 03:01:17;;;;;;;11.73;10.20;;;;;;;6.85;100.00;100097.53;4963199;28;20536;-73
2023/10/21 03:03:44;;;;;;;11.40;9.87;;;;;;;6.85;100.00;100052.22;4966053;28;20448;-74
2023/10/21 03:06:10;;;;;;;11.70;10.30;;;;;;;7.70;100.00;100224.59;4964132;28;20449;-73
2023/10/21 03:08:37;;;;;;;12.93;11.00;;;;;;;7.87;100.00;100276.69;4958701;28;20453;-73
2023/10/21 03:11:06;;;;;;;11.90;10.00;;;;;;;7.08;100.00;100124.78;4964929;28;20454;-74
2023/10/21 03:13:33;;;;;;;11.57;10.37;;;;;;;7.80;100.00;100224.25;4960443;28;20448;-74
2023/10/21 03:15:59;;;;;;;11.20;10.00;;;;;;;8.02;100.00;100275.75;4958961;28;20476;-74
2023/10/21 03:18:25;;;;;;;11.57;10.17;;;;;;;6.75;100.00;100084.53;4965784;28;20462;-74
2023/10/21 03:20:54;;;;;;;10.07;9.00;;;;;;;7.64;100.00;100236.88;4974467;28;20205;-74
2023/10/21 03:23:20;;;;;;;12.37;9.60;;;;;;;6.83;100.00;100104.88;4966386;28;20545;-74
2023/10/21 03:26:03;;;;;;;10.87;9.70;;;;;;;7.15;100.00;100172.88;4957164;28;20458;-74
2023/10/21 03:28:29;;;;;;;11.63;10.40;;;;;;;7.81;100.00;100271.25;4967896;28;20462;-74
2023/10/21 03:30:59;;;;;;;11.00;9.80;;;;;;;8.22;100.00;100321.28;4963644;28;20446;-74
2023/10/21 03:33:26;;;;;;;9.97;8.73;;;;;;;6.91;100.00;100128.75;4965008;28;20442;-73
2023/10/21 03:35:56;;;;;;;10.30;9.20;;;;;;;7.51;100.00;100260.78;4966279;28;20480;-74
2023/10/21 03:38:22;;;;;;;10.73;9.60;;;;;;;7.28;100.00;100188.97;4965308;28;20461;-73
2023/10/21 03:40:58;;;;;;;11.73;10.50;;;;;;;9.37;100.00;100525.81;4968085;28;20453;-74
2023/10/21 03:43:25;;;;;;;12.13;10.83;;;;;;;8.74;100.00;100454.47;4967469;28;20528;-74
2023/10/21 03:45:52;;;;;;;10.70;9.33;;;;;;;7.53;100.00;100289.97;4959111;28;20930;-74
2023/10/21 03:48:18;;;;;;;11.57;10.20;;;;;;;6.91;100.00;100166.06;4965710;28;20498;-74
2023/10/21 03:50:43;;;;;;;13.00;10.47;;;;;;;9.25;100.00;100587.91;4966421;28;20458;-74
2023/10/21 03:53:09;;;;;;;12.93;11.10;;;;;;;8.12;100.00;100421.28;4969407;28;20548;-74
2023/10/21 03:55:35;;;;;;;12.73;10.93;;;;;;;7.42;100.00;100294.78;4967985;28;20554;-74
2023/10/21 03:58:00;;;;;;;12.27;10.73;;;;;;;8.44;100.00;100511.81;4956765;28;20249;-74
2023/10/21 04:00:25;;;;;;;12.63;10.53;;;;;;;8.07;100.00;100470.94;4963130;28;20961;-74
2023/10/21 04:02:51;;;;;;;11.67;10.13;;;;;;;9.26;100.00;100608.31;4965360;28;20187;-73
2023/10/21 04:05:17;;;;;;;9.90;8.73;;;;;;;7.87;100.00;100436.06;4969892;28;20244;-73
2023/10/21 04:07:44;;;;;;;13.90;11.70;;;;;;;8.03;100.00;100445.66;4963605;28;20182;-73
2023/10/21 04:10:10;;;;;;;11.03;9.60;;;;;;;8.55;100.00;100509.44;4969790;28;20206;-73
2023/10/21 04:12:36;;;;;;;17.80;12.07;;;;;;;8.10;100.00;100492.78;4962363;28;20799;-73
2023/10/21 04:15:02;;;;;;;11.10;9.90;;;;;;;8.37;100.00;100503.72;4964945;28;20445;-74
2023/10/21 04:17:27;;;;;;;12.77;11.17;;;;;;;8.30;100.00;100516.16;4961891;28;20473;-71
2023/10/21 04:19:53;;;;;;;12.67;10.43;;;;;;;8.99;100.00;100617.16;4968843;28;20265;-72
2023/10/21 04:22:18;;;;;;;13.20;11.20;;;;;;;9.27;100.00;100657.31;4965290;28;20249;-72
2023/10/21 04:24:44;;;;;;;11.70;10.33;;;;;;;8.98;100.00;100644.94;4961394;28;20194;-72
2023/10/21 04:27:09;;;;;;;13.10;9.97;;;;;;;8.67;100.00;100570.41;4961808;28;20189;-72
2023/10/21 04:29:35;;;;;;;11.53;10.33;;;;;;;9.33;100.00;100683.31;4967442;28;20605;-72
2023/10/21 04:32:00;;;;;;;12.23;10.93;;;;;;;8.58;100.00;100583.91;4969029;28;20205;-72
2023/10/21 04:34:26;;;;;;;10.87;9.37;;;;;;;9.35;100.00;100693.81;4965455;28;20191;-72
2023/10/21 04:36:51;;;;;;;12.07;10.73;;;;;;;9.21;100.00;100688.34;4964457;28;20214;-72
2023/10/21 04:39:16;;;;;;;11.90;10.50;;;;;;;9.35;100.00;100707.22;4964561;28;20201;-72
2023/10/21 04:41:42;;;;;;;12.40;9.60;;;;;;;9.29;100.00;100708.81;4966988;28;20186;-72
2023/10/21 04:44:09;;;;;;;11.80;10.20;;;;;;;9.34;100.00;100738.47;4959401;28;20659;-72
2023/10/21 04:46:35;;;;;;;13.33;10.30;;;;;;;9.01;100.00;100661.44;4974079;28;20443;-72
2023/10/21 04:49:00;;;;;;;11.90;10.60;;;;;;;8.65;100.00;100626.75;4960954;28;20894;-72
2023/10/21 04:51:26;;;;;;;13.33;11.93;;;;;;;9.26;100.00;100719.91;4961685;28;20197;-72
2023/10/21 04:53:51;;;;;;;12.10;10.13;;;;;;;9.30;100.00;100721.16;4965940;28;20197;-72
2023/10/21 04:56:17;;;;;;;12.40;10.03;;;;;;;8.66;100.00;100628.41;4964934;28;20432;-72
2023/10/21 04:58:42;;;;;;;11.63;10.20;;;;;;;9.20;100.00;100709.94;4958965;28;20217;-75
2023/10/21 05:01:10;;;;;;;12.57;10.63;;;;;;;9.37;100.00;100739.94;4959029;28;20272;-71
2023/10/21 05:03:36;;;;;;;11.40;10.20;;;;;;;9.37;100.00;100738.09;4964124;28;20214;-72
2023/10/21 05:06:01;;;;;;;13.20;11.17;;;;;;;8.62;100.00;100629.81;4962647;28;20469;-72
2023/10/21 05:08:26;;;;;;;14.47;11.73;;;;;;;8.70;100.00;100640.38;4961351;28;20205;-72
2023/10/21 05:10:52;;;;;;;13.40;11.60;;;;;;;8.74;100.00;100660.38;4963025;28;20194;-72
2023/10/21 05:13:17;;;;;;;15.20;13.10;;;;;;;9.27;100.00;100753.66;4958791;28;20242;-72
2023/10/21 05:15:44;;;;;;;14.50;10.87;;;;;;;8.76;100.00;100682.38;4956761;28;20246;-73
2023/10/21 05:18:09;;;;;;;14.80;12.17;;;;;;;9.16;100.00;100744.28;4959038;28;20217;-72
2023/10/21 05:20:35;;;;;;;13.20;11.73;;;;;;;9.02;100.00;100751.38;4954681;28;20983;-72
2023/10/21 05:23:00;;;;;;;14.10;11.30;;;;;;;9.10;100.00;100749.59;4968760;28;20199;-72
2023/10/21 05:25:25;;;;;;;13.53;11.33;;;;;;;9.39;100.00;100783.41;4957185;28;22193;-72
2023/10/21 05:27:51;;;;;;;13.80;12.13;;;;;;;8.80;100.00;100722.97;4959852;28;20290;-72
2023/10/21 05:30:17;;;;;;;13.90;11.30;;;;;;;9.38;100.00;100789.81;4959701;28;20190;-72
2023/10/21 05:32:43;;;;;;;14.20;11.93;;;;;;;9.03;100.00;100736.16;4963617;28;20560;-72
2023/10/21 05:35:08;;;;;;;18.57;13.17;;;;;;;9.27;100.00;100789.28;4966247;28;20515;-72
2023/10/21 05:37:35;;;;;;;14.43;12.07;;;;;;;9.17;100.00;100785.25;4958322;28;21063;-72
2023/10/21 05:40:04;;;;;;;14.90;12.60;;;;;;;8.47;100.00;100674.47;4966321;28;20213;-72
2023/10/21 05:42:30;;;;;;;17.20;12.53;;;;;;;9.17;100.00;100771.88;4962331;28;20919;-72
2023/10/21 05:44:55;;;;;;;15.73;12.53;;;;;;;9.21;100.00;100787.38;4968219;28;20445;-72
2023/10/21 05:47:20;;;;;;;17.70;13.70;;;;;;;8.74;100.00;100691.63;4964253;28;20249;-72
2023/10/21 05:49:46;;;;;;;15.87;13.00;;;;;;;9.34;100.00;100794.69;4958874;28;20325;-72
2023/10/21 05:52:14;;;;;;;16.30;13.73;;;;;;;8.51;100.00;100673.91;4963668;28;20205;-71
2023/10/21 05:54:39;;;;;;;16.93;13.50;;;;;;;8.64;100.00;100704.47;4962001;28;20197;-72
2023/10/21 05:57:05;;;;;;;16.17;13.73;;;;;;;8.45;100.00;100669.31;4963474;28;20470;-72
2023/10/21 05:59:30;;;;;;;16.37;13.63;;;;;;;9.26;100.00;100816.25;4963899;28;20578;-71
2023/10/21 06:01:56;;;;;;;15.40;12.60;;;;;;;8.50;100.00;100692.81;4960088;28;20651;-71
2023/10/21 06:04:21;;;;;;;16.00;13.07;;;;;;;8.67;100.00;100728.16;4964266;28;20639;-72
2023/10/21 06:06:49;;;;;;;19.97;13.43;;;;;;;8.93;100.00;100749.84;4958834;28;20667;-72
2023/10/21 06:09:15;;;;;;;16.07;12.70;;;;;;;9.09;100.00;100769.34;4959557;28;20297;-72
2023/10/21 06:11:40;;;;;;;16.53;13.47;;;;;;;8.72;100.00;100739.94;4962937;28;20955;-72
2023/10/21 06:14:06;;;;;;;17.03;13.33;;;;;;;8.94;100.00;100762.22;4960863;28;20258;-72
2023/10/21 06:16:31;;;;;;;16.40;13.43;;;;;;;8.77;100.00;100721.50;4959615;28;20210;-72
2023/10/21 06:18:57;;;;;;;15.03;12.43;;;;;;;8.73;100.00;100732.75;4960510;28;20219;-71
2023/10/21 06:21:22;;;;;;;15.80;12.97;;;;;;;8.92;100.00;100769.59;4957199;28;20190;-72
2023/10/21 06:23:48;;;;;;;14.70;11.90;;;;;;;9.04;100.00;100780.63;4962472;28;20224;-71
2023/10/21 06:26:13;;;;;;;19.30;14.60;;;;;;;9.27;100.00;100837.47;4961114;28;20194;-71
2023/10/21 06:28:39;;;;;;;16.97;13.60;;;;;;;9.44;100.00;100854.13;4969908;28;20209;-72
2023/10/21 06:31:05;;;;;;;17.53;14.00;;;;;;;9.50;100.00;100855.19;4965715;28;20273;-71
2023/10/21 06:33:30;;;;;;;19.10;13.10;;;;;;;8.58;100.00;100738.97;4961627;28;20560;-72
2023/10/21 06:35:56;;;;;;;19.10;13.77;;;;;;;9.29;100.00;100837.28;4967795;28;20483;-72
2023/10/21 06:38:21;;;;;;;16.23;13.50;;;;;;;8.75;100.00;100750.25;4969450;28;20216;-72
2023/10/21 06:40:47;;;;;;;17.67;13.10;;;;;;;9.18;100.00;100809.16;4962661;28;20190;-72
2023/10/21 06:43:12;;;;;;;19.30;14.20;;;;;;;9.38;100.00;100846.84;4967280;28;20181;-72
2023/10/21 06:45:38;;;;;;;16.13;12.93;;;;;;;8.75;100.00;100742.25;4972147;28;20644;-72
2023/10/21 06:48:04;;;;;;;17.73;13.40;;;;;;;9.22;100.00;100821.13;4967033;28;20191;-72
2023/10/21 06:50:31;;;;;;;15.40;12.13;;;;;;;9.46;100.00;100852.09;4965905;28;20224;-72
2023/10/21 06:52:56;;;;;;;16.50;12.90;;;;;;;8.81;100.00;100754.03;4965221;28;20445;-71
2023/10/21 06:55:22;;;;;;;17.00;14.13;;;;;;;9.25;100.00;100823.44;4964521;28;20439;-73
2023/10/21 06:57:50;;;;;;;17.00;13.70;;;;;;;8.70;100.00;100741.97;4959279;28;20186;-72
2023/10/21 07:00:16;;;;;;;18.47;13.97;;;;;;;9.46;100.00;100846.72;4966761;28;20279;-72
2023/10/21 07:02:41;;;;;;;18.10;14.07;;;;;;;9.49;100.00;100851.69;4959726;28;20850;-72
2023/10/21 07:05:09;;;;;;;19.33;15.27;;;;;;;9.25;100.00;100833.31;4964961;28;21220;-72
2023/10/21 07:07:41;;;;;;;16.90;13.60;;;;;;;8.91;100.00;100772.44;4960832;28;20297;-72
2023/10/21 07:10:09;;;;;;;18.30;14.07;;;;;;;6.79;100.00;100421.66;4981200;23;20457;-78
2023/10/21 07:12:35;;;;;;;17.07;13.77;;;;;;;6.17;100.00;100345.56;4978041;28;21040;-78
2023/10/21 07:15:01;;;;;;;16.57;13.50;;;;;;;7.06;100.00;100483.34;4985856;28;20597;-78
2023/10/21 07:17:26;;;;;;;17.13;13.00;;;;;;;8.06;100.00;100675.00;4982926;28;20516;-79
2023/10/21 07:19:52;;;;;;;16.83;13.30;;;;;;;6.76;100.00;100441.50;4972546;28;20589;-78
2023/10/21 07:22:17;;;;;;;17.27;13.03;;;;;;;6.63;100.00;100405.88;4969758;28;20187;-78
2023/10/21 07:24:43;;;;;;;18.10;13.10;;;;;;;7.28;100.00;100519.75;4963135;28;20210;-78
2023/10/21 07:27:08;;;;;;;16.30;12.43;;;;;;;7.22;100.00;100485.81;4963088;28;20198;-78
2023/10/21 07:29:33;;;;;;;15.87;12.47;;;;;;;7.97;100.00;100617.34;4963238;28;20203;-77
2023/10/21 07:31:59;;;;;;;14.40;11.47;;;;;;;8.40;100.00;100703.81;4964048;28;20201;-78
2023/10/21 07:34:25;;;;;;;16.53;12.40;;;;;;;6.89;100.00;100464.88;4970876;28;20183;-78
2023/10/21 07:36:50;;;;;;;16.20;12.40;;;;;;;8.81;100.00;100768.22;4965990;28;20221;-78
2023/10/21 07:39:18;;;;;;;15.67;12.17;;;;;;;7.08;100.00;100474.16;4968830;28;20264;-78
2023/10/21 07:41:44;;;;;;;17.23;12.60;;;;;;;8.90;100.00;100819.75;4961932;28;20817;-78
2023/10/21 07:44:13;;;;;;;17.20;13.57;;;;;;;7.42;100.00;100566.13;4970398;28;20507;-77
2023/10/21 07:46:38;;;;;;;15.60;12.07;;;;;;;7.95;100.00;100662.09;4968528;28;20674;-78
2023/10/21 07:49:06;;;;;;;16.43;12.83;;;;;;;7.50;100.00;100583.91;4964074;28;20560;-78
2023/10/21 07:51:32;;;;;;;14.73;11.40;;;;;;;8.40;100.00;100702.97;4968043;28;20263;-78
2023/10/21 07:53:58;;;;;;;17.03;13.77;;;;;;;7.46;100.00;100544.25;4972745;28;20883;-78
2023/10/21 07:56:23;;;;;;;15.93;12.87;;;;;;;8.19;100.00;100661.81;4969908;28;20477;-79
2023/10/21 07:58:49;;;;;;;15.40;12.50;;;;;;;8.41;100.00;100707.31;4967588;28;20671;-78
2023/10/21 08:01:14;;;;;;;15.50;13.03;;;;;;;7.60;100.00;100611.94;4963783;28;20205;-78
2023/10/21 08:03:40;;;;;;;16.30;13.20;;;;;;;8.46;100.00;100734.31;4970670;28;20187;-78
2023/10/21 08:06:07;;;;;;;15.93;12.53;;;;;;;8.42;100.00;100738.34;4966152;28;20212;-79
2023/10/21 08:08:32;;;;;;;17.47;13.83;;;;;;;7.96;100.00;100637.91;4967660;28;20209;-78
2023/10/21 08:11:03;;;;;;;14.70;11.87;;;;;;;7.83;100.00;100624.38;4970682;28;20450;-77
2023/10/21 08:13:29;;;;;;;16.33;12.73;;;;;;;7.65;100.00;100588.19;4965426;28;20182;-78
2023/10/21 08:15:55;;;;;;;16.40;13.07;;;;;;;8.44;100.00;100710.41;4959517;28;20835;-79
2023/10/21 08:18:21;;;;;;;17.27;13.03;;;;;;;8.33;100.00;100708.19;4966858;28;20517;-79
2023/10/21 08:20:47;;;;;;;17.17;13.40;;;;;;;8.22;100.00;100658.75;4964738;28;20190;-77
2023/10/21 08:23:12;;;;;;;17.87;12.80;;;;;;;7.69;100.00;100578.81;4968756;28;20440;-77
2023/10/21 08:25:37;;;;;;;18.93;13.87;;;;;;;7.66;100.00;100552.47;4965411;28;20190;-78
2023/10/21 08:28:03;;;;;;;15.47;12.13;;;;;;;8.49;100.00;100699.19;4962624;28;20745;-78
2023/10/21 08:30:29;;;;;;;16.60;12.20;;;;;;;7.93;100.00;100639.09;4968899;28;20589;-78
2023/10/21 08:32:54;;;;;;;14.70;10.70;;;;;;;7.63;100.00;100547.50;4960747;28;20182;-78
2023/10/21 08:35:19;;;;;;;21.93;14.80;;;;;;;9.30;100.00;100843.47;4960092;28;20202;-77
2023/10/21 08:37:45;;;;;;;15.67;12.60;;;;;;;8.73;100.00;100735.44;4960334;28;20199;-79
2023/10/21 08:40:11;;;;;;;18.00;13.53;;;;;;;8.33;100.00;100670.78;4963468;28;20213;-78
2023/10/21 08:42:37;;;;;;;18.07;14.20;;;;;;;8.76;100.00;100735.88;4956498;28;20187;-77
2023/10/21 08:45:09;;;;;;;15.13;12.00;;;;;;;8.16;100.00;100622.09;4964142;28;20438;-78
2023/10/21 08:47:35;;;;;;;13.67;11.67;;;;;;;9.34;100.00;100837.53;4962760;28;20430;-78
2023/10/21 08:50:02;;;;;;;17.00;13.33;;;;;;;8.59;100.00;100673.81;4963177;28;20466;-78
2023/10/21 08:52:29;;;;;;;20.00;13.77;;;;;;;8.62;100.00;100712.69;4963683;28;20429;-78
2023/10/21 08:54:56;;;;;;;16.23;12.37;;;;;;;9.56;100.00;100822.28;4965398;28;20442;-78
2023/10/21 08:57:22;;;;;;;15.60;11.50;;;;;;;8.99;100.00;100754.41;4977110;28;20480;-78
2023/10/21 08:59:49;;;;;;;15.33;11.50;;;;;;;7.93;100.00;100553.63;4974972;28;20470;-77
2023/10/21 09:02:17;;;;;;;15.73;11.53;;;;;;;8.44;100.00;100664.16;4961581;28;20228;-78
2023/10/21 09:04:43;;;;;;;16.07;12.30;;;;;;;9.78;100.00;100838.31;4960681;28;20470;-78
2023/10/21 09:07:08;;;;;;;15.20;11.20;;;;;;;9.58;100.00;100848.91;4969724;28;20449;-77
2023/10/21 09:09:34;;;;;;;16.70;10.97;;;;;;;8.97;100.00;100742.28;4970748;28;20242;-78
2023/10/21 09:12:05;;;;;;;14.93;11.17;;;;;;;9.34;100.00;100828.66;4965058;28;20202;-78
2023/10/21 09:14:31;;;;;;;16.23;13.13;;;;;;;9.17;100.00;100753.16;4967482;28;20202;-78
2023/10/21 09:16:57;;;;;;;15.93;12.10;;;;;;;8.02;100.00;100534.81;4960619;28;20889;-78
2023/10/21 09:19:29;;;;;;;14.50;10.47;;;;;;;9.14;100.00;100746.34;4966181;28;20978;-78
2023/10/21 09:21:55;;;;;;;16.57;12.40;;;;;;;9.36;100.00;100783.81;4962126;28;20448;-79
2023/10/21 09:24:22;;;;;;;11.87;10.20;;;;;;;9.33;100.00;100779.66;4958959;28;20454;-77
2023/10/21 09:26:48;;;;;;;13.03;10.60;;;;;;;8.60;100.00;100674.63;4965488;28;20229;-78
2023/10/21 09:29:19;;;;;;;12.93;9.50;;;;;;;8.75;100.00;100666.53;4964761;28;20465;-76
2023/10/21 09:31:48;;;;;;;11.30;9.67;;;;;;;11.17;100.00;101039.66;4969823;28;20450;-81
2023/10/21 09:34:31;;;;;;;13.80;9.90;;;;;;;9.38;100.00;100733.59;4981291;28;20441;-79
2023/10/21 09:37:04;;;;;;;12.53;8.90;;;;;;;9.99;100.00;100821.41;4960260;28;20470;-78
2023/10/21 09:39:36;;;;;;;11.03;8.60;;;;;;;10.91;100.00;100970.56;4966055;28;20465;-77
2023/10/21 09:42:03;;;;;;;10.97;9.20;;;;;;;11.00;100.00;100924.56;4961680;28;20993;-78
2023/10/21 09:44:34;;;;;;;12.60;8.40;;;;;;;9.78;100.00;100760.66;4957920;28;20501;-77
2023/10/21 09:47:03;;;;;;;10.20;8.33;;;;;;;12.11;100.00;101082.03;4956361;28;20481;-75
2023/10/21 09:49:31;;;;;;;11.13;8.07;;;;;;;9.63;100.00;100673.22;4959983;28;21484;-76
2023/10/21 09:52:10;;;;;;;10.60;8.50;;;;;;;12.12;100.00;101073.78;4964077;28;20449;-75
2023/10/21 09:55:03;;;;;;;10.63;8.87;;;;;;;9.40;100.00;100633.34;4960381;28;20441;-76
2023/10/21 09:57:29;;;;;;;8.40;7.30;;;;;;;9.86;100.00;100705.06;4969673;28;20986;-76
2023/10/21 09:59:58;;;;;;;12.50;9.73;;;;;;;10.72;100.00;100862.91;4948017;28;20996;-76
2023/10/21 10:02:26;;;;;;;9.87;7.53;;;;;;;10.97;100.00;100929.50;4952933;28;20442;-76
2023/10/21 10:04:53;;;;;;;11.67;8.70;;;;;;;10.85;100.00;100862.16;4955468;28;20533;-76
2023/10/21 10:07:20;;;;;;;13.33;9.17;;;;;;;10.13;100.00;100761.50;4970851;28;20430;-76
2023/10/21 10:09:47;;;;;;;10.53;8.60;;;;;;;10.01;100.00;100701.44;4965939;28;20458;-76
2023/10/21 10:12:20;;;;;;;10.00;7.40;;;;;;;10.72;100.00;100816.47;4966052;28;20452;-76
2023/10/21 10:14:45;;;;;;;9.77;7.13;;;;;;;10.83;100.00;100845.44;4958189;28;20438;-76
2023/10/21 10:17:13;;;;;;;9.80;7.57;;;;;;;10.90;100.00;100823.97;4964238;28;20479;-75
2023/10/21 10:19:42;;;;;;;11.40;7.77;;;;;;;11.32;100.00;100866.63;4978376;28;20219;-76
2023/10/21 10:22:28;;;;;;;8.97;6.87;;;;;;;11.04;100.00;100769.31;4963568;28;20975;-76
2023/10/21 10:24:55;;;;;;;12.20;8.60;;;;;;;12.05;100.00;100911.63;4964173;28;20524;-77
2023/10/21 10:27:40;;;;;;;9.90;8.20;;;;;;;12.04;100.00;100922.59;4964747;28;20437;-76
2023/10/21 10:30:24;;;;;;;10.60;8.30;;;;;;;10.92;100.00;100750.28;4965340;28;20462;-76
2023/10/21 10:32:51;;;;;;;9.53;7.57;;;;;;;11.81;100.00;100882.63;4968629;28;20437;-76
2023/10/21 10:35:30;;;;;;;9.13;7.23;;;;;;;10.81;100.00;100702.59;4966763;28;20472;-75
2023/10/21 10:37:57;;;;;;;8.30;6.20;;;;;;;10.44;100.00;100664.53;4964675;28;20492;-75
2023/10/21 10:40:37;;;;;;;8.20;5.60;;;;;;;11.08;100.00;100811.66;4968604;28;20430;-75
2023/10/21 10:43:05;;;;;;;9.30;5.80;;;;;;;11.32;100.00;100834.41;4968339;28;21351;-76
2023/10/21 10:45:32;;;;;;;8.47;5.60;;;;;;;10.35;100.00;100673.78;4967124;28;20462;-76
2023/10/21 10:48:02;;;;;;;11.77;7.70;;;;;;;12.10;100.00;100911.00;4965341;28;20434;-76
2023/10/21 10:50:29;;;;;;;13.63;5.80;;;;;;;11.01;100.00;100729.47;4964454;28;20444;-76
2023/10/21 10:52:55;;;;;;;7.60;5.27;;;;;;;11.32;100.00;100821.00;4966193;28;20438;-76
2023/10/21 10:55:21;;;;;;;16.47;6.70;;;;;;;11.02;100.00;100723.91;4963632;28;20452;-76
2023/10/21 10:57:48;;;;;;;6.53;5.00;;;;;;;11.52;100.00;100842.50;4964801;28;20837;-76
2023/10/21 11:00:20;;;;;;;8.30;6.00;;;;;;;11.38;100.00;100815.84;4959749;28;20495;-76
2023/10/21 11:02:47;;;;;;;7.60;4.77;;;;;;;11.13;100.00;100837.06;4962753;28;20973;-77
2023/10/21 11:05:22;;;;;;;8.60;5.27;;;;;;;11.38;100.00;100843.53;4957557;28;20536;-75
2023/10/21 11:07:50;;;;;;;7.87;5.00;;;;;;;11.02;100.00;100752.56;4964026;28;20438;-76
2023/10/21 11:10:22;;;;;;;8.13;4.67;;;;;;;11.42;100.00;100866.25;4962030;28;20536;-76
2023/10/21 11:12:52;;;;;;;8.07;4.07;;;;;;;11.13;100.00;100819.09;4960443;28;20442;-76
2023/10/21 11:15:18;;;;;;;6.50;4.30;;;;;;;10.91;100.00;100767.44;4966743;28;20481;-76
2023/10/21 11:17:48;;;;;;;8.10;4.53;;;;;;;10.87;100.00;100811.78;4965447;28;20476;-76